Terminal Aerodrome Forecast
Issued by NWS

Home | Current Version | Previous Version | Text Only | Print | Product List | Glossary On
Versions: 1 2 3 4 5 6 7 8 9 10 11
000
FTUS42 KILM 281700
TAFCRE
TAF
KCRE 281723Z 2818/2918 19010KT P6SM SCT025
     FM290600 23003KT 5SM BR SCT005 BKN015
     FM291000 35004KT 3SM BR BKN004
     FM291300 03005KT 2SM -DZ BR BKN003=

USA.gov is the U.S. government's official web portal to all federal, state and local government web resources and services.